createdAt,value
2019-04-20T00:00:06.721Z,49.60
2019-04-20T00:02:34.156Z,49.60
2019-04-20T00:05:03.428Z,49.60
2019-04-20T00:07:34.832Z,49.60
2019-04-20T00:13:54.136Z,49.60
2019-04-20T00:16:13.084Z,49.80
2019-04-20T00:18:48.257Z,49.80
2019-04-20T00:21:29.477Z,49.80
2019-04-20T00:24:01.039Z,49.70
2019-04-20T00:27:00.645Z,49.80
2019-04-20T00:29:21.567Z,49.80
2019-04-20T00:31:48.057Z,49.80
2019-04-20T00:34:09.168Z,49.80
2019-04-20T00:36:30.830Z,49.80
2019-04-20T00:39:03.716Z,49.80
2019-04-20T00:41:29.715Z,49.70
2019-04-20T00:44:04.750Z,49.70
2019-04-20T00:46:35.698Z,49.60
2019-04-20T00:49:06.844Z,49.60
2019-04-20T00:51:44.953Z,49.70
2019-04-20T00:53:59.218Z,49.70
2019-04-20T00:56:28.842Z,49.70
2019-04-20T00:59:10.169Z,49.70
2019-04-20T01:01:50.285Z,50.30
2019-04-20T01:04:17.548Z,49.80
2019-04-20T01:07:01.148Z,49.70
2019-04-20T01:09:20.230Z,49.70
2019-04-20T01:11:50.130Z,49.80
2019-04-20T01:14:28.677Z,49.70
2019-04-20T01:16:57.944Z,49.70
2019-04-20T01:19:19.326Z,49.70
2019-04-20T01:21:53.404Z,49.80
2019-04-20T01:24:24.796Z,49.80
2019-04-20T01:26:53.705Z,49.80
2019-04-20T01:29:29.681Z,49.80
2019-04-20T01:32:03.642Z,49.80
2019-04-20T01:34:34.233Z,49.80
2019-04-20T01:37:05.655Z,49.90
2019-04-20T01:39:28.449Z,49.80
2019-04-20T01:41:49.678Z,49.70
2019-04-20T01:44:26.176Z,49.70
2019-04-20T01:46:54.876Z,49.70
2019-04-20T01:49:22.448Z,49.70
2019-04-20T01:51:57.715Z,49.70
2019-04-20T01:54:31.574Z,49.70
2019-04-20T01:56:58.895Z,49.80
2019-04-20T01:59:31.769Z,49.80
2019-04-20T02:02:14.451Z,49.80
2019-04-20T02:04:46.062Z,49.70
2019-04-20T02:07:11.959Z,49.70
2019-04-20T02:09:48.620Z,49.70
2019-04-20T02:12:15.461Z,49.70
2019-04-20T02:14:45.404Z,49.70
2019-04-20T02:17:25.197Z,49.70
2019-04-20T02:19:59.798Z,49.70
2019-04-20T02:22:30.601Z,49.70
2019-04-20T02:24:40.715Z,49.70
2019-04-20T02:27:10.251Z,49.70
2019-04-20T02:29:58.513Z,49.70
2019-04-20T02:32:36.555Z,49.70
2019-04-20T02:35:07.249Z,49.80
2019-04-20T02:37:58.418Z,49.70
2019-04-20T02:40:15.729Z,49.80
2019-04-20T02:42:51.447Z,49.80
2019-04-20T02:45:27.143Z,49.80
2019-04-20T02:47:47.371Z,49.80
2019-04-20T02:50:19.184Z,49.80
2019-04-20T02:55:15.160Z,49.80
2019-04-20T02:57:53.063Z,49.90
2019-04-20T03:00:12.449Z,49.80
2019-04-20T03:02:33.443Z,49.80
2019-04-20T03:04:56.157Z,49.80
2019-04-20T03:07:30.411Z,49.80
2019-04-20T03:10:08.413Z,49.80
2019-04-20T03:12:38.351Z,49.80
2019-04-20T03:14:59.740Z,49.80
2019-04-20T03:17:38.752Z,49.80
2019-04-20T03:19:59.556Z,49.80
2019-04-20T03:22:51.242Z,49.80
2019-04-20T03:25:13.561Z,49.80
2019-04-20T03:27:41.043Z,49.90
2019-04-20T03:30:39.701Z,49.80
2019-04-20T03:33:05.955Z,49.80
2019-04-20T03:35:20.020Z,49.80
2019-04-20T03:37:44.237Z,49.80
2019-04-20T03:40:08.311Z,49.80
2019-04-20T03:42:26.727Z,49.80
2019-04-20T03:45:00.476Z,49.80
2019-04-20T03:47:35.927Z,49.70
2019-04-20T03:50:22.416Z,49.70
2019-04-20T03:52:49.712Z,49.70
2019-04-20T03:55:19.887Z,49.70
2019-04-20T03:58:03.451Z,49.70
2019-04-20T04:00:31.727Z,49.70
2019-04-20T04:03:21.517Z,49.70
2019-04-20T04:05:36.945Z,49.80
2019-04-20T04:08:01.018Z,49.90
2019-04-20T04:10:31.660Z,49.80
2019-04-20T04:13:14.764Z,49.80
2019-04-20T04:15:50.074Z,49.70
2019-04-20T04:18:21.947Z,49.70
2019-04-20T04:20:52.192Z,49.80
2019-04-20T04:23:35.635Z,49.80
2019-04-20T04:26:05.896Z,49.70
2019-04-20T04:28:35.120Z,49.80
2019-04-20T04:31:04.099Z,49.80
2019-04-20T04:36:00.553Z,49.90
2019-04-20T04:38:39.591Z,50.00
2019-04-20T04:43:36.305Z,50.00
2019-04-20T04:45:44.919Z,50.00
2019-04-20T04:48:21.282Z,50.00
2019-04-20T04:50:50.900Z,50.10
2019-04-20T04:53:27.208Z,50.10
2019-04-20T05:02:37.336Z,50.40
2019-04-20T05:05:30.993Z,50.60
2019-04-20T05:07:53.140Z,50.60
2019-04-20T05:10:12.048Z,50.80
2019-04-20T05:12:41.015Z,51.00
2019-04-20T05:15:23.038Z,51.80
2019-04-20T05:18:02.121Z,51.80
2019-04-20T05:20:28.125Z,51.80
2019-04-20T05:23:12.675Z,51.40
2019-04-20T05:25:59.613Z,51.20
2019-04-20T05:28:16.799Z,51.00
2019-04-20T05:30:46.899Z,50.90
2019-04-20T05:33:21.333Z,50.60
2019-04-20T05:36:01.815Z,50.50
2019-04-20T05:38:37.108Z,50.50
2019-04-20T05:40:55.798Z,50.60
2019-04-20T05:43:41.484Z,50.60
2019-04-20T05:46:16.913Z,50.60
2019-04-20T05:48:45.777Z,50.60
2019-04-20T05:51:21.127Z,50.70
2019-04-20T05:53:45.763Z,50.60
2019-04-20T05:56:17.319Z,51.20
2019-04-20T05:58:45.416Z,50.80
2019-04-20T06:01:22.839Z,50.80
2019-04-20T06:03:42.551Z,50.80
2019-04-20T06:06:15.214Z,50.90
2019-04-20T06:08:58.014Z,50.90
2019-04-20T06:11:24.600Z,51.00
2019-04-20T06:13:47.060Z,51.00
2019-04-20T06:16:31.061Z,51.00
2019-04-20T06:19:11.301Z,51.00
2019-04-20T06:21:37.826Z,51.00
2019-04-20T06:24:20.696Z,51.00
2019-04-20T06:26:54.156Z,51.00
2019-04-20T06:29:16.993Z,51.00
2019-04-20T06:31:45.438Z,51.00
2019-04-20T06:34:30.119Z,51.10
2019-04-20T06:36:55.840Z,51.20
2019-04-20T06:39:29.192Z,51.10
2019-04-20T06:44:30.300Z,51.10
2019-04-20T06:47:08.919Z,51.20
2019-04-20T06:49:31.450Z,51.20
2019-04-20T06:52:15.417Z,51.20
2019-04-20T06:54:48.308Z,51.20
2019-04-20T06:57:25.635Z,51.20
2019-04-20T06:59:53.706Z,51.20
2019-04-20T07:07:36.271Z,51.30
2019-04-20T07:09:59.849Z,51.40
2019-04-20T07:12:17.033Z,51.40
2019-04-20T07:14:45.436Z,51.50
2019-04-20T07:17:39.270Z,51.40
2019-04-20T07:19:58.887Z,51.40
2019-04-20T07:22:33.593Z,51.40
2019-04-20T07:25:01.073Z,51.50
2019-04-20T07:27:33.638Z,51.50
2019-04-20T07:30:03.981Z,51.60
2019-04-20T07:32:38.777Z,51.60
2019-04-20T07:35:03.364Z,51.50
2019-04-20T07:37:59.478Z,51.50
2019-04-20T07:40:10.370Z,51.60
2019-04-20T07:42:43.802Z,51.60
2019-04-20T07:45:08.744Z,51.50
2019-04-20T07:47:40.555Z,51.60
2019-04-20T07:50:05.041Z,52.20
2019-04-20T07:52:24.347Z,51.60
2019-04-20T07:55:26.361Z,51.60
2019-04-20T07:57:34.019Z,51.80
2019-04-20T08:00:06.347Z,51.70
2019-04-20T08:02:43.595Z,51.80
2019-04-20T08:05:05.985Z,51.80
2019-04-20T08:07:36.096Z,51.80
2019-04-20T08:09:57.413Z,51.80
2019-04-20T08:12:55.738Z,51.80
2019-04-20T08:15:32.444Z,51.80
2019-04-20T08:17:56.454Z,51.70
2019-04-20T08:20:22.035Z,51.80
2019-04-20T08:22:55.239Z,51.80
2019-04-20T08:25:14.303Z,51.70
2019-04-20T08:27:50.848Z,51.80
2019-04-20T08:30:46.605Z,51.70
2019-04-20T08:36:51.422Z,51.80
2019-04-20T08:41:57.568Z,51.90
2019-04-20T08:47:06.092Z,51.80
2019-04-20T08:49:26.484Z,51.80
2019-04-20T08:52:08.258Z,51.70
2019-04-20T08:57:31.312Z,51.70
2019-04-20T09:00:03.135Z,51.80
2019-04-20T09:02:30.484Z,51.90
2019-04-20T09:05:04.911Z,52.00
2019-04-20T09:07:32.051Z,51.90
2019-04-20T09:10:24.283Z,51.90
2019-04-20T09:12:49.154Z,51.90
2019-04-20T09:14:59.688Z,51.80
2019-04-20T09:17:35.594Z,51.90
2019-04-20T09:20:09.608Z,51.90
2019-04-20T09:22:46.958Z,51.80
2019-04-20T09:25:44.433Z,51.60
2019-04-20T09:27:45.860Z,51.60
2019-04-20T09:30:25.947Z,51.60
2019-04-20T09:33:05.915Z,51.50
2019-04-20T09:35:30.188Z,51.50
2019-04-20T09:38:06.120Z,51.50
2019-04-20T09:40:35.273Z,51.50
2019-04-20T09:42:56.220Z,51.40
2019-04-20T09:45:34.995Z,51.50
2019-04-20T09:47:57.119Z,51.60
2019-04-20T09:50:46.304Z,51.60
2019-04-20T09:53:16.707Z,51.50
2019-04-20T09:55:44.490Z,51.50
2019-04-20T09:58:12.361Z,51.50
2019-04-20T10:00:54.120Z,51.60
2019-04-20T10:03:12.923Z,51.50
2019-04-20T10:05:41.548Z,51.40
2019-04-20T10:08:11.397Z,51.50
2019-04-20T10:10:42.643Z,51.40
2019-04-20T10:13:11.205Z,51.40
2019-04-20T10:15:39.774Z,51.40
2019-04-20T10:18:08.152Z,51.40
2019-04-20T10:20:38.916Z,51.40
2019-04-20T10:23:06.763Z,51.50
2019-04-20T10:25:36.317Z,51.40
2019-04-20T10:28:05.526Z,51.40
2019-04-20T10:30:34.692Z,51.20
2019-04-20T10:33:03.562Z,51.40
2019-04-20T10:35:32.067Z,51.40
2019-04-20T10:38:07.359Z,51.30
2019-04-20T10:40:46.418Z,51.20
2019-04-20T10:43:09.845Z,51.30
2019-04-20T10:45:39.551Z,51.30
2019-04-20T10:48:10.870Z,51.20
2019-04-20T10:50:39.330Z,51.30
2019-04-20T10:53:07.987Z,51.20
2019-04-20T10:55:37.640Z,51.30
2019-04-20T10:58:07.350Z,51.40
2019-04-20T11:00:41.943Z,51.30
2019-04-20T11:03:11.575Z,51.30
2019-04-20T11:05:42.565Z,51.20
2019-04-20T11:08:12.770Z,51.30
2019-04-20T11:10:55.434Z,51.20
2019-04-20T11:13:11.906Z,51.20
2019-04-20T11:15:40.288Z,51.20
2019-04-20T11:18:09.254Z,51.20
2019-04-20T11:20:37.707Z,51.10
2019-04-20T11:23:06.605Z,51.20
2019-04-20T11:25:35.046Z,51.20
2019-04-20T11:28:04.035Z,51.10
2019-04-20T11:30:32.370Z,51.10
2019-04-20T11:33:00.738Z,51.00
2019-04-20T11:35:34.383Z,50.90
2019-04-20T11:38:00.864Z,51.00
2019-04-20T11:40:30.596Z,51.70
2019-04-20T11:42:59.646Z,51.10
2019-04-20T11:45:28.808Z,51.00
2019-04-20T11:47:57.783Z,50.80
2019-04-20T11:50:27.400Z,50.70
2019-04-20T11:52:57.187Z,50.80
2019-04-20T11:55:26.615Z,50.90
2019-04-20T11:57:56.221Z,50.80
2019-04-20T12:00:27.865Z,50.90
2019-04-20T12:03:15.898Z,51.00
2019-04-20T12:05:45.951Z,51.00
2019-04-20T12:08:11.078Z,50.90
2019-04-20T12:10:43.615Z,50.90
2019-04-20T12:13:10.843Z,50.90
2019-04-20T12:15:39.751Z,51.00
2019-04-20T12:18:09.403Z,50.90
2019-04-20T12:20:38.917Z,50.80
2019-04-20T12:23:08.530Z,50.90
2019-04-20T12:25:39.328Z,50.90
2019-04-20T12:28:07.450Z,50.80
2019-04-20T12:30:35.882Z,50.80
2019-04-20T12:33:05.637Z,50.60
2019-04-20T12:35:35.861Z,50.60
2019-04-20T12:38:07.201Z,50.50
2019-04-20T12:40:37.811Z,50.50
2019-04-20T12:43:06.844Z,50.70
2019-04-20T12:45:35.671Z,50.80
2019-04-20T12:48:04.243Z,50.80
2019-04-20T12:54:02.578Z,50.50
2019-04-20T12:56:31.140Z,50.60
2019-04-20T12:58:59.840Z,50.50
2019-04-20T13:01:28.260Z,50.40
2019-04-20T13:03:57.411Z,50.30
2019-04-20T13:06:25.901Z,50.40
2019-04-20T13:08:58.409Z,50.60
2019-04-20T13:11:26.709Z,50.60
2019-04-20T13:14:12.483Z,50.50
2019-04-20T13:16:40.891Z,50.50
2019-04-20T13:19:09.251Z,51.00
2019-04-20T13:21:38.925Z,50.40
2019-04-20T13:27:49.317Z,50.40
2019-04-20T13:30:19.618Z,50.50
2019-04-20T13:32:48.199Z,50.50
2019-04-20T13:35:16.566Z,50.50
2019-04-20T13:37:45.199Z,50.40
2019-04-20T13:40:15.698Z,50.20
2019-04-20T13:42:44.037Z,50.20
2019-04-20T13:45:12.928Z,50.20
2019-04-20T13:47:41.424Z,50.20
2019-04-20T13:50:12.557Z,50.20
2019-04-20T13:52:40.694Z,50.30
2019-04-20T13:55:09.052Z,50.10
2019-04-20T13:57:55.878Z,50.00
2019-04-20T14:00:52.463Z,50.10
2019-04-20T14:03:22.840Z,50.10
2019-04-20T14:05:51.432Z,50.10
2019-04-20T14:08:23.316Z,50.10
2019-04-20T14:10:51.651Z,50.10
2019-04-20T14:13:22.098Z,50.00
2019-04-20T14:15:50.989Z,49.90
2019-04-20T14:18:19.804Z,49.90
2019-04-20T14:20:48.180Z,49.80
2019-04-20T14:23:17.064Z,49.90
2019-04-20T14:25:46.963Z,49.80
2019-04-20T14:28:15.581Z,49.70
2019-04-20T14:30:43.955Z,49.70
2019-04-20T14:33:12.868Z,49.60
2019-04-20T14:35:41.368Z,49.60
2019-04-20T14:38:09.890Z,49.70
2019-04-20T14:40:38.291Z,49.70
2019-04-20T14:43:06.875Z,49.60
2019-04-20T14:45:36.539Z,49.60
2019-04-20T14:48:05.791Z,49.70
2019-04-20T14:50:34.273Z,49.70
2019-04-20T14:53:02.649Z,49.70
2019-04-20T14:55:31.341Z,49.60
2019-04-20T14:58:01.626Z,49.60
2019-04-20T15:00:51.320Z,49.50
2019-04-20T15:03:30.581Z,49.50
2019-04-20T15:06:00.088Z,49.60
2019-04-20T15:08:28.520Z,49.60
2019-04-20T15:10:58.769Z,49.50
2019-04-20T15:13:28.741Z,49.50
2019-04-20T15:15:57.266Z,49.40
2019-04-20T15:18:33.875Z,49.30
2019-04-20T15:21:07.728Z,49.30
2019-04-20T15:23:37.363Z,49.30
2019-04-20T15:29:34.230Z,49.30
2019-04-20T15:32:04.065Z,49.40
2019-04-20T15:34:32.983Z,49.30
2019-04-20T15:37:02.488Z,49.30
2019-04-20T15:39:32.897Z,49.30
2019-04-20T15:42:01.445Z,49.20
2019-04-20T15:47:59.534Z,49.10
2019-04-20T15:50:28.004Z,49.20
2019-04-20T15:52:57.377Z,49.20
2019-04-20T15:55:31.032Z,49.20
2019-04-20T15:57:57.652Z,49.10
2019-04-20T16:00:26.695Z,49.10
2019-04-20T16:03:03.360Z,49.10
2019-04-20T16:05:37.676Z,49.00
2019-04-20T16:08:23.686Z,49.00
2019-04-20T16:10:53.085Z,49.00
2019-04-20T16:13:27.825Z,49.00
2019-04-20T16:15:51.744Z,48.90
2019-04-20T16:18:20.937Z,48.90
2019-04-20T16:20:58.079Z,48.80
2019-04-20T16:23:20.788Z,48.80
2019-04-20T16:25:53.742Z,48.80
2019-04-20T16:28:23.664Z,48.70
2019-04-20T16:30:52.172Z,48.70
2019-04-20T16:33:20.719Z,48.60
2019-04-20T16:35:50.165Z,48.60
2019-04-20T16:38:18.588Z,48.50
2019-04-20T16:40:48.338Z,48.50
2019-04-20T16:43:25.941Z,48.50
2019-04-20T16:45:47.399Z,48.40
2019-04-20T16:48:16.194Z,48.50
2019-04-20T16:50:45.134Z,48.40
2019-04-20T16:53:14.916Z,48.30
2019-04-20T16:55:43.477Z,48.30
2019-04-20T16:58:11.848Z,48.30
2019-04-20T17:00:41.262Z,48.10
2019-04-20T17:03:11.075Z,48.10
2019-04-20T17:05:41.293Z,48.10
2019-04-20T17:08:11.054Z,48.00
2019-04-20T17:10:39.527Z,47.90
2019-04-20T17:13:07.902Z,47.80
2019-04-20T17:15:37.307Z,47.80
2019-04-20T17:18:05.860Z,47.70
2019-04-20T17:20:34.722Z,47.70
2019-04-20T17:23:05.610Z,47.60
2019-04-20T17:25:34.355Z,47.60
2019-04-20T17:28:14.948Z,47.60
2019-04-20T17:31:03.090Z,47.40
2019-04-20T17:33:47.376Z,47.40
2019-04-20T17:36:12.449Z,47.40
2019-04-20T17:38:41.979Z,47.30
2019-04-20T17:41:23.771Z,47.30
2019-04-20T17:43:57.571Z,47.20
2019-04-20T17:46:17.594Z,47.80
2019-04-20T17:48:51.173Z,47.20
2019-04-20T17:51:28.679Z,47.20
2019-04-20T17:53:49.070Z,47.10
2019-04-20T17:56:12.159Z,47.00
2019-04-20T17:58:41.346Z,47.00
2019-04-20T18:01:42.356Z,47.00
2019-04-20T18:04:31.088Z,47.00
2019-04-20T18:06:44.095Z,46.90
2019-04-20T18:09:17.924Z,47.00
2019-04-20T18:11:39.866Z,46.90
2019-04-20T18:14:16.909Z,46.90
2019-04-20T18:20:16.791Z,46.90
2019-04-20T18:22:50.493Z,46.90
2019-04-20T18:25:41.799Z,46.90
2019-04-20T18:27:59.670Z,46.80
2019-04-20T18:30:43.695Z,46.70
2019-04-20T18:33:03.612Z,46.70
2019-04-20T18:35:34.917Z,46.60
2019-04-20T18:38:07.702Z,46.60
2019-04-20T18:40:42.781Z,46.60
2019-04-20T18:43:10.298Z,46.70
2019-04-20T18:45:56.962Z,46.60
2019-04-20T18:48:15.975Z,46.60
2019-04-20T18:50:39.725Z,46.50
2019-04-20T18:53:03.235Z,46.50
2019-04-20T18:55:41.664Z,46.50
2019-04-20T18:58:01.765Z,46.50
2019-04-20T19:00:33.884Z,46.50
2019-04-20T19:03:09.330Z,46.50
2019-04-20T19:05:31.547Z,46.50
2019-04-20T19:08:06.226Z,46.50
2019-04-20T19:10:35.011Z,46.50
2019-04-20T19:13:05.854Z,46.40
2019-04-20T19:15:55.224Z,46.40
2019-04-20T19:18:20.930Z,46.40
2019-04-20T19:20:40.963Z,46.40
2019-04-20T19:23:10.333Z,46.40
2019-04-20T19:25:40.976Z,46.40
2019-04-20T19:28:09.211Z,46.40
2019-04-20T19:30:47.009Z,46.40
2019-04-20T19:33:24.618Z,46.30
2019-04-20T19:35:51.738Z,46.30
2019-04-20T19:38:17.014Z,46.40
2019-04-20T19:40:52.571Z,46.40
2019-04-20T19:43:20.584Z,46.30
2019-04-20T19:46:15.497Z,46.30
2019-04-20T19:48:22.000Z,46.40
2019-04-20T19:51:06.917Z,46.40
2019-04-20T19:53:31.867Z,46.40
2019-04-20T19:55:54.777Z,46.40
2019-04-20T19:58:25.285Z,46.30
2019-04-20T20:00:49.100Z,46.40
2019-04-20T20:03:17.430Z,46.30
2019-04-20T20:05:48.396Z,46.30
2019-04-20T20:08:20.918Z,46.20
2019-04-20T20:10:45.971Z,46.20
2019-04-20T20:13:14.954Z,46.20
2019-04-20T20:15:45.090Z,46.20
2019-04-20T20:18:30.689Z,46.20
2019-04-20T20:21:00.890Z,46.20
2019-04-20T20:23:14.277Z,46.10
2019-04-20T20:25:47.436Z,46.70
2019-04-20T20:28:25.493Z,46.20
2019-04-20T20:30:56.612Z,46.20
2019-04-20T20:33:29.401Z,46.20
2019-04-20T20:35:52.979Z,46.20
2019-04-20T20:38:19.048Z,46.20
2019-04-20T20:40:54.836Z,46.20
2019-04-20T20:43:22.622Z,46.20
2019-04-20T20:46:00.136Z,46.20
2019-04-20T20:48:29.708Z,46.20
2019-04-20T20:51:05.143Z,46.10
2019-04-20T20:53:21.942Z,46.10
2019-04-20T20:55:47.634Z,46.10
2019-04-20T20:58:19.186Z,46.10
2019-04-20T21:00:54.016Z,46.20
2019-04-20T21:03:22.165Z,46.20
2019-04-20T21:05:45.362Z,46.10
2019-04-20T21:08:15.648Z,46.10
2019-04-20T21:10:45.994Z,46.00
2019-04-20T21:13:15.489Z,46.00
2019-04-20T21:15:45.423Z,46.00
2019-04-20T21:18:34.853Z,46.00
2019-04-20T21:21:01.017Z,46.00
2019-04-20T21:23:28.687Z,46.00
2019-04-20T21:26:03.974Z,46.00
2019-04-20T21:28:35.791Z,46.50
2019-04-20T21:31:10.547Z,46.00
2019-04-20T21:33:36.131Z,46.00
2019-04-20T21:41:59.055Z,46.00
2019-04-20T21:44:28.741Z,46.00
2019-04-20T21:46:54.704Z,46.00
2019-04-20T21:49:37.588Z,46.00
2019-04-20T21:51:58.571Z,46.00
2019-04-20T21:54:22.702Z,46.10
2019-04-20T21:56:56.145Z,46.00
2019-04-20T21:59:30.613Z,46.00
2019-04-20T22:01:58.474Z,45.90
2019-04-20T22:04:22.895Z,45.90
2019-04-20T22:06:52.116Z,46.00
2019-04-20T22:09:23.985Z,45.90
2019-04-20T22:18:49.520Z,46.00
2019-04-20T22:21:19.866Z,46.20
2019-04-20T22:23:57.222Z,46.20
2019-04-20T22:26:18.614Z,46.10
2019-04-20T22:28:38.155Z,46.10
2019-04-20T22:31:08.186Z,46.10
2019-04-20T22:33:41.168Z,46.10
2019-04-20T22:36:10.827Z,46.10
2019-04-20T22:38:59.783Z,46.10
2019-04-20T22:41:27.929Z,46.10
2019-04-20T22:43:56.681Z,46.00
2019-04-20T22:46:33.208Z,46.10
2019-04-20T22:49:14.333Z,46.00
2019-04-20T22:51:40.009Z,46.10
2019-04-20T22:54:12.939Z,46.00
2019-04-20T22:56:38.305Z,46.00
2019-04-20T22:59:02.118Z,46.00
2019-04-20T23:01:32.150Z,46.10
2019-04-20T23:03:55.233Z,46.10
2019-04-20T23:06:25.299Z,46.20
2019-04-20T23:08:59.619Z,46.10
2019-04-20T23:11:28.362Z,46.20
2019-04-20T23:13:53.625Z,46.30
2019-04-20T23:16:22.946Z,46.20
2019-04-20T23:18:52.020Z,46.30
2019-04-20T23:21:21.605Z,46.30
2019-04-20T23:23:53.673Z,46.30
2019-04-20T23:26:25.543Z,46.30
2019-04-20T23:28:55.227Z,46.40
2019-04-20T23:31:23.578Z,46.40
2019-04-20T23:33:50.168Z,46.40
2019-04-20T23:36:26.669Z,46.30
2019-04-20T23:38:53.808Z,46.40
2019-04-20T23:41:19.663Z,46.50
2019-04-20T23:43:54.028Z,46.60
2019-04-20T23:46:30.194Z,46.70
2019-04-20T23:49:23.230Z,46.70
2019-04-20T23:52:08.650Z,46.60
2019-04-20T23:54:22.053Z,46.60
2019-04-20T23:56:45.838Z,46.60
2019-04-20T23:59:14.786Z,46.50
